Time;durP1;ratioP1;P1;durP2;ratioP2;P2;SDS_P1;SDS_P2;PMS_P1;PMS_P2;Temp;Humidity;BMP_temperature;BMP_pressure;BME280_temperature;BME280_humidity;BME280_pressure;Samples;Min_cycle;Max_cycle;Signal;HPM_P1;HPM_P2
2023/10/02 00:00:42;;;;;;;18.30;9.38;;;;;;;;;;4955510;28;20137;-62
2023/10/02 00:03:09;;;;;;;17.65;8.15;;;;;;;;;;4955445;28;20047;-61
2023/10/02 00:05:50;;;;;;;16.10;8.32;;;;;;;;;;4963495;28;20055;-62
2023/10/02 00:08:31;;;;;;;17.77;8.55;;;;;;;;;;4955261;28;20051;-61
2023/10/02 00:11:35;;;;;;;20.50;8.88;;;;;;;;;;4955221;28;20058;-62
2023/10/02 00:14:18;;;;;;;20.52;9.20;;;;;;;;;;4955233;28;20047;-62
2023/10/02 00:16:42;;;;;;;22.23;9.13;;;;;;;;;;4963033;28;20471;-62
2023/10/02 00:19:22;;;;;;;22.58;10.07;;;;;;;;;;4959569;28;20577;-61
2023/10/02 00:21:49;;;;;;;19.50;9.50;;;;;;;;;;4957956;28;20043;-61
2023/10/02 00:24:17;;;;;;;21.02;9.38;;;;;;;;;;4957716;28;20787;-62
2023/10/02 00:26:44;;;;;;;17.88;9.10;;;;;;;;;;4957873;28;20047;-62
2023/10/02 00:29:11;;;;;;;19.80;8.90;;;;;;;;;;4958888;28;20148;-61
2023/10/02 00:31:38;;;;;;;20.77;9.25;;;;;;;;;;4957488;28;20434;-61
2023/10/02 00:34:05;;;;;;;19.13;10.18;;;;;;;;;;4958490;28;20047;-63
2023/10/02 00:36:32;;;;;;;20.27;9.32;;;;;;;;;;4959779;28;20057;-63
2023/10/02 00:39:24;;;;;;;17.40;8.95;;;;;;;;;;4960936;28;20047;-63
2023/10/02 00:44:51;;;;;;;22.25;8.48;;;;;;;;;;4955283;28;20051;-61
2023/10/02 00:47:16;;;;;;;23.45;10.18;;;;;;;;;;4954388;28;20083;-63
2023/10/02 00:49:42;;;;;;;17.33;8.88;;;;;;;;;;4968918;28;20125;-63
2023/10/02 00:52:09;;;;;;;18.67;9.27;;;;;;;;;;4965676;28;20411;-60
2023/10/02 00:54:36;;;;;;;19.83;8.38;;;;;;;;;;4974121;28;20071;-61
2023/10/02 00:57:16;;;;;;;21.33;9.80;;;;;;;;;;4973700;28;20479;-62
2023/10/02 00:59:45;;;;;;;23.05;9.45;;;;;;;;;;4967358;28;20581;-64
2023/10/02 01:02:17;;;;;;;22.70;8.70;;;;;;;;;;4970273;28;20399;-62
2023/10/02 01:04:44;;;;;;;20.25;9.30;;;;;;;;;;4954127;28;20051;-63
2023/10/02 01:07:15;;;;;;;17.83;9.02;;;;;;;;;;4969981;28;20134;-63
2023/10/02 01:09:41;;;;;;;;;;;;;;;;;;4960281;28;20057;-62
2023/10/02 01:12:11;;;;;;;17.25;8.38;;;;;;;;;;4955413;28;19961;-62
2023/10/02 01:14:50;;;;;;;19.80;8.20;;;;;;;;;;4954190;28;20054;-64
2023/10/02 01:17:20;;;;;;;21.38;9.20;;;;;;;;;;4954231;28;20427;-62
2023/10/02 01:19:53;;;;;;;17.38;8.80;;;;;;;;;;4960672;28;20047;-61
2023/10/02 01:22:26;;;;;;;20.23;9.95;;;;;;;;;;4970010;28;20043;-62
2023/10/02 01:25:06;;;;;;;18.00;8.02;;;;;;;;;;4953810;28;20058;-61
2023/10/02 01:27:40;;;;;;;18.60;9.18;;;;;;;;;;4961698;28;20079;-61
2023/10/02 01:30:15;;;;;;;18.65;9.02;;;;;;;;;;4963114;28;20086;-64
2023/10/02 01:33:11;;;;;;;18.60;8.95;;;;;;;;;;4959413;28;20396;-63
2023/10/02 01:35:46;;;;;;;20.30;9.10;;;;;;;;;;4961759;28;20102;-63
2023/10/02 01:38:16;;;;;;;21.33;8.75;;;;;;;;;;4953862;28;20061;-65
2023/10/02 01:40:45;;;;;;;19.20;9.07;;;;;;;;;;4953624;28;20102;-62
2023/10/02 01:43:15;;;;;;;21.15;8.93;;;;;;;;;;4969675;28;20042;-63
2023/10/02 01:45:43;;;;;;;22.05;8.93;;;;;;;;;;4966810;28;20495;-63
2023/10/02 01:48:14;;;;;;;22.00;8.77;;;;;;;;;;4972593;28;20133;-63
2023/10/02 01:50:43;;;;;;;22.50;10.05;;;;;;;;;;4974928;28;20080;-62
2023/10/02 01:56:00;;;;;;;17.50;8.13;;;;;;;;;;4960597;28;20089;-62
2023/10/02 01:58:27;;;;;;;20.85;8.60;;;;;;;;;;4965457;28;20073;-64
2023/10/02 02:00:54;;;;;;;22.52;9.38;;;;;;;;;;4972891;28;20042;-62
2023/10/02 02:03:22;;;;;;;21.88;8.95;;;;;;;;;;4961608;28;20471;-61
2023/10/02 02:05:49;;;;;;;18.50;8.43;;;;;;;;;;4960212;28;20046;-63
2023/10/02 02:08:22;;;;;;;18.58;8.77;;;;;;;;;;4961788;28;20051;-62
2023/10/02 02:10:51;;;;;;;19.77;8.73;;;;;;;;;;4960240;28;20053;-62
2023/10/02 02:13:20;;;;;;;19.63;8.52;;;;;;;;;;4961987;28;20384;-63
2023/10/02 02:15:47;;;;;;;20.48;8.65;;;;;;;;;;4960008;28;20130;-63
2023/10/02 02:18:15;;;;;;;21.98;9.10;;;;;;;;;;4956827;28;20106;-60
2023/10/02 02:20:44;;;;;;;21.50;9.63;;;;;;;;;;4965336;28;20082;-60
2023/10/02 02:23:14;;;;;;;18.63;8.73;;;;;;;;;;4976338;28;20046;-62
2023/10/02 02:25:41;;;;;;;19.33;8.60;;;;;;;;;;4962908;28;20058;-63
2023/10/02 02:28:08;;;;;;;23.85;10.00;;;;;;;;;;4965023;28;20594;-62
2023/10/02 02:30:40;;;;;;;24.02;12.65;;;;;;;;;;4964822;28;20138;-62
2023/10/02 02:33:08;;;;;;;19.42;10.93;;;;;;;;;;4964790;28;20057;-62
2023/10/02 02:35:35;;;;;;;21.10;9.27;;;;;;;;;;4961923;28;20053;-61
2023/10/02 02:38:03;;;;;;;17.83;8.35;;;;;;;;;;4960117;28;20113;-62
2023/10/02 02:40:31;;;;;;;17.63;7.93;;;;;;;;;;4979505;28;20058;-64
2023/10/02 02:42:56;;;;;;;18.38;8.77;;;;;;;;;;4986843;28;20150;-63
2023/10/02 02:45:28;;;;;;;16.83;8.57;;;;;;;;;;4983586;28;20133;-61
2023/10/02 02:47:57;;;;;;;20.30;9.88;;;;;;;;;;4968034;28;20047;-60
2023/10/02 02:50:28;;;;;;;19.52;8.57;;;;;;;;;;4964412;28;20106;-60
2023/10/02 02:53:16;;;;;;;;;;;;;;;;;;4964863;28;20521;-61
2023/10/02 02:55:42;;;;;;;21.40;8.95;;;;;;;;;;4956642;28;20334;-61
2023/10/02 02:58:09;;;;;;;17.90;7.75;;;;;;;;;;4956477;28;20508;-61
2023/10/02 03:00:36;;;;;;;21.10;8.77;;;;;;;;;;4956281;28;20518;-61
2023/10/02 03:03:29;;;;;;;17.88;9.18;;;;;;;;;;4972293;28;20057;-61
2023/10/02 03:05:52;;;;;;;23.50;9.43;;;;;;;;;;4956225;28;20051;-60
2023/10/02 03:08:19;;;;;;;20.65;9.52;;;;;;;;;;4956365;28;20418;-61
2023/10/02 03:10:46;;;;;;;21.08;8.40;;;;;;;;;;4956064;28;20048;-61
2023/10/02 03:13:16;;;;;;;18.77;8.23;;;;;;;;;;4955878;28;20055;-59
2023/10/02 03:15:47;;;;;;;19.70;8.73;;;;;;;;;;4962132;28;20047;-59
2023/10/02 03:18:30;;;;;;;;;;;;;;;;;;4965736;28;20074;-60
2023/10/02 03:20:58;;;;;;;19.52;8.00;;;;;;;;;;4972036;28;19969;-60
2023/10/02 03:23:25;;;;;;;21.17;7.90;;;;;;;;;;4963710;28;20424;-59
2023/10/02 03:25:55;;;;;;;17.38;7.28;;;;;;;;;;4956004;28;20051;-61
2023/10/02 03:28:28;;;;;;;18.83;8.90;;;;;;;;;;4955622;28;20047;-60
2023/10/02 03:30:54;;;;;;;16.65;7.22;;;;;;;;;;4955942;28;20051;-61
2023/10/02 03:33:22;;;;;;;21.60;9.13;;;;;;;;;;4955631;28;20048;-61
2023/10/02 03:36:07;;;;;;;19.55;7.82;;;;;;;;;;4955900;28;20396;-62
2023/10/02 03:38:35;;;;;;;19.65;8.95;;;;;;;;;;4968513;28;20061;-61
2023/10/02 03:41:05;;;;;;;21.00;8.60;;;;;;;;;;4966939;28;20049;-59
2023/10/02 03:43:43;;;;;;;20.60;8.85;;;;;;;;;;4962352;28;20053;-61
2023/10/02 03:46:15;;;;;;;21.73;8.82;;;;;;;;;;4973321;28;20050;-61
2023/10/02 03:48:51;;;;;;;21.30;7.95;;;;;;;;;;4969346;28;20051;-61
2023/10/02 03:51:35;;;;;;;20.00;8.68;;;;;;;;;;4955283;28;20484;-61
2023/10/02 03:54:17;;;;;;;22.25;8.13;;;;;;;;;;4955686;28;20055;-61
2023/10/02 03:56:47;;;;;;;19.90;9.35;;;;;;;;;;4955595;28;20047;-61
2023/10/02 03:59:17;;;;;;;20.15;8.85;;;;;;;;;;4955891;28;20146;-61
2023/10/02 04:01:44;;;;;;;22.17;8.88;;;;;;;;;;4955042;28;20051;-62
2023/10/02 04:04:19;;;;;;;24.48;8.93;;;;;;;;;;4955461;28;20049;-62
2023/10/02 04:06:47;;;;;;;23.48;9.13;;;;;;;;;;4955403;28;20058;-62
2023/10/02 04:09:21;;;;;;;19.08;8.52;;;;;;;;;;4955236;28;20121;-62
2023/10/02 04:11:50;;;;;;;19.73;9.32;;;;;;;;;;4954846;28;20114;-62
2023/10/02 04:14:31;;;;;;;22.40;9.23;;;;;;;;;;4955007;28;20051;-62
2023/10/02 04:17:08;;;;;;;21.70;9.48;;;;;;;;;;4971152;28;20503;-62
2023/10/02 04:19:40;;;;;;;23.90;9.55;;;;;;;;;;4968100;28;20054;-62
2023/10/02 04:22:08;;;;;;;21.27;9.75;;;;;;;;;;4956978;28;20055;-62
2023/10/02 04:24:51;;;;;;;22.80;9.50;;;;;;;;;;4954921;28;20058;-61
2023/10/02 04:27:21;;;;;;;22.45;9.52;;;;;;;;;;4957626;28;20051;-65
2023/10/02 04:30:18;;;;;;;20.50;9.20;;;;;;;;;;4959470;28;20055;-62
2023/10/02 04:32:35;;;;;;;25.52;10.00;;;;;;;;;;4967885;28;20067;-63
2023/10/02 04:35:03;;;;;;;22.33;9.85;;;;;;;;;;4957483;28;20123;-62
2023/10/02 04:37:31;;;;;;;21.95;10.18;;;;;;;;;;4954898;28;20074;-64
2023/10/02 04:40:14;;;;;;;24.73;11.07;;;;;;;;;;4962396;28;20433;-64
2023/10/02 04:43:14;;;;;;;20.88;10.55;;;;;;;;;;4954506;28;20546;-63
2023/10/02 04:45:44;;;;;;;19.85;10.25;;;;;;;;;;4960584;28;20050;-65
2023/10/02 04:48:10;;;;;;;20.98;10.10;;;;;;;;;;4973907;28;20054;-65
2023/10/02 04:50:45;;;;;;;20.52;10.27;;;;;;;;;;4973885;28;20101;-65
2023/10/02 04:53:22;;;;;;;22.77;10.27;;;;;;;;;;4973714;28;20105;-65
2023/10/02 04:55:57;;;;;;;23.27;10.68;;;;;;;;;;4965644;28;20049;-65
2023/10/02 04:58:28;;;;;;;19.83;9.02;;;;;;;;;;4966182;28;20054;-63
2023/10/02 05:03:49;;;;;;;19.98;10.55;;;;;;;;;;4967818;28;20057;-65
2023/10/02 05:06:16;;;;;;;22.75;10.25;;;;;;;;;;4971193;28;20053;-63
2023/10/02 05:09:19;;;;;;;20.77;10.55;;;;;;;;;;4960251;28;20054;-65
2023/10/02 05:11:46;;;;;;;26.58;12.10;;;;;;;;;;4966042;28;20050;-64
2023/10/02 05:14:13;;;;;;;22.15;10.02;;;;;;;;;;4957179;28;20055;-63
2023/10/02 05:16:42;;;;;;;22.88;10.43;;;;;;;;;;4980235;28;20042;-65
2023/10/02 05:19:14;;;;;;;23.55;10.60;;;;;;;;;;4984041;28;20053;-64
2023/10/02 05:21:49;;;;;;;25.50;10.10;;;;;;;;;;4967597;28;20499;-65
2023/10/02 05:24:17;;;;;;;24.17;10.70;;;;;;;;;;4971023;28;20058;-64
2023/10/02 05:26:46;;;;;;;22.02;10.40;;;;;;;;;;4953940;28;20051;-64
2023/10/02 05:29:17;;;;;;;27.38;11.50;;;;;;;;;;4955562;28;20079;-65
2023/10/02 05:31:43;;;;;;;;;;;;;;;;;;4970260;28;20055;-64
2023/10/02 05:34:13;;;;;;;23.23;10.65;;;;;;;;;;4975144;28;19973;-64
2023/10/02 05:36:54;;;;;;;24.77;10.73;;;;;;;;;;4974535;28;20050;-64
2023/10/02 05:39:39;;;;;;;25.40;11.88;;;;;;;;;;4973200;28;20051;-65
2023/10/02 05:42:08;;;;;;;27.45;11.65;;;;;;;;;;4964112;28;20618;-65
2023/10/02 05:44:35;;;;;;;27.00;12.13;;;;;;;;;;4966799;28;20479;-63
2023/10/02 05:47:06;;;;;;;27.25;11.40;;;;;;;;;;4965004;28;20491;-63
2023/10/02 05:49:33;;;;;;;27.85;11.77;;;;;;;;;;4968201;28;20134;-64
2023/10/02 05:52:02;;;;;;;26.48;11.80;;;;;;;;;;4961546;28;20512;-65
2023/10/02 05:54:35;;;;;;;25.60;11.68;;;;;;;;;;4972715;28;20411;-64
2023/10/02 05:57:09;;;;;;;27.45;12.25;;;;;;;;;;4964573;28;20421;-64
2023/10/02 05:59:46;;;;;;;26.30;12.52;;;;;;;;;;4972659;28;20046;-64
2023/10/02 06:02:14;;;;;;;23.48;10.57;;;;;;;;;;4966074;28;20198;-65
2023/10/02 06:04:47;;;;;;;28.13;12.00;;;;;;;;;;4971547;28;20561;-63
2023/10/02 06:07:19;;;;;;;24.52;10.52;;;;;;;;;;4971354;28;20491;-65
2023/10/02 06:09:47;;;;;;;28.40;11.68;;;;;;;;;;4970659;28;20039;-64
2023/10/02 06:12:14;;;;;;;29.27;11.75;;;;;;;;;;4975559;28;20056;-65
2023/10/02 06:14:42;;;;;;;25.13;11.05;;;;;;;;;;4981369;28;20418;-64
2023/10/02 06:17:11;;;;;;;24.42;11.18;;;;;;;;;;4977005;28;20042;-63
2023/10/02 06:19:43;;;;;;;24.63;10.48;;;;;;;;;;4971649;28;20087;-65
2023/10/02 06:22:13;;;;;;;25.08;10.57;;;;;;;;;;4963720;28;20047;-64
2023/10/02 06:24:40;;;;;;;26.67;10.47;;;;;;;;;;4975721;28;20047;-65
2023/10/02 06:27:13;;;;;;;27.58;11.07;;;;;;;;;;4964618;28;20494;-64
2023/10/02 06:29:44;;;;;;;19.63;9.52;;;;;;;;;;4975147;28;20051;-64
2023/10/02 06:32:14;;;;;;;;;;;;;;;;;;4983358;28;20069;-63
2023/10/02 06:34:43;;;;;;;25.85;10.38;;;;;;;;;;4966957;28;19922;-63
2023/10/02 06:37:12;;;;;;;22.80;9.60;;;;;;;;;;4982255;28;20498;-64
2023/10/02 06:39:41;;;;;;;24.10;9.68;;;;;;;;;;4977626;28;20071;-63
2023/10/02 06:42:10;;;;;;;26.42;9.23;;;;;;;;;;4972318;28;20418;-64
2023/10/02 06:44:42;;;;;;;21.45;9.73;;;;;;;;;;4972352;28;20053;-64
2023/10/02 06:47:13;;;;;;;22.80;9.50;;;;;;;;;;4972729;28;20130;-63
2023/10/02 06:49:41;;;;;;;22.95;9.73;;;;;;;;;;4959061;28;20186;-63
2023/10/02 06:52:16;;;;;;;25.65;10.65;;;;;;;;;;4965525;28;20420;-62
2023/10/02 06:54:44;;;;;;;24.38;10.32;;;;;;;;;;4969136;28;20051;-63
2023/10/02 06:57:18;;;;;;;24.70;9.77;;;;;;;;;;4971082;28;20478;-63
2023/10/02 06:59:52;;;;;;;21.65;10.45;;;;;;;;;;4967643;28;20154;-65
2023/10/02 07:02:24;;;;;;;25.92;11.40;;;;;;;;;;4960870;28;20090;-63
2023/10/02 07:04:52;;;;;;;23.65;10.35;;;;;;;;;;4977735;28;20065;-64
2023/10/02 07:07:24;;;;;;;25.15;10.18;;;;;;;;;;4983877;28;20050;-63
2023/10/02 07:09:52;;;;;;;23.23;9.82;;;;;;;;;;4958357;28;20553;-62
2023/10/02 07:12:20;;;;;;;23.33;9.95;;;;;;;;;;4968469;28;20059;-64
2023/10/02 07:14:48;;;;;;;26.15;9.57;;;;;;;;;;4961236;28;20507;-64
2023/10/02 07:17:18;;;;;;;22.33;10.23;;;;;;;;;;4963001;28;20043;-66
2023/10/02 07:19:50;;;;;;;22.83;9.35;;;;;;;;;;4959989;28;20117;-63
2023/10/02 07:22:23;;;;;;;25.48;10.07;;;;;;;;;;4956200;28;20129;-63
2023/10/02 07:24:52;;;;;;;25.83;10.38;;;;;;;;;;4973962;28;20132;-63
2023/10/02 07:27:26;;;;;;;25.50;9.63;;;;;;;;;;4969459;28;20097;-64
2023/10/02 07:29:59;;;;;;;24.33;10.05;;;;;;;;;;4978961;28;20043;-63
2023/10/02 07:32:32;;;;;;;29.33;10.73;;;;;;;;;;4967149;28;20055;-63
2023/10/02 07:35:09;;;;;;;26.17;10.85;;;;;;;;;;4973255;28;20391;-63
2023/10/02 07:37:38;;;;;;;25.77;10.30;;;;;;;;;;4973683;28;20326;-63
2023/10/02 07:40:06;;;;;;;27.52;11.45;;;;;;;;;;4969452;28;20046;-64
2023/10/02 07:42:34;;;;;;;29.95;11.05;;;;;;;;;;4972016;28;20058;-64
2023/10/02 07:45:12;;;;;;;30.48;12.90;;;;;;;;;;4969335;28;20438;-64
2023/10/02 07:47:55;;;;;;;26.00;10.65;;;;;;;;;;4974321;28;20546;-63
2023/10/02 07:50:33;;;;;;;27.35;10.23;;;;;;;;;;4970119;28;20050;-63
2023/10/02 07:53:01;;;;;;;25.67;10.50;;;;;;;;;;4969048;28;20058;-65
2023/10/02 07:55:28;;;;;;;29.63;12.55;;;;;;;;;;4975206;28;20055;-64
2023/10/02 07:58:00;;;;;;;32.00;12.88;;;;;;;;;;4966447;28;20074;-63
2023/10/02 08:00:40;;;;;;;29.27;11.60;;;;;;;;;;4973405;28;20129;-62
2023/10/02 08:03:31;;;;;;;30.20;12.05;;;;;;;;;;4964295;28;20090;-64
2023/10/02 08:05:58;;;;;;;27.35;11.07;;;;;;;;;;4976567;28;20038;-62
2023/10/02 08:08:31;;;;;;;30.35;11.43;;;;;;;;;;4967085;28;20138;-64
2023/10/02 08:10:59;;;;;;;26.05;10.95;;;;;;;;;;4969828;28;20498;-63
2023/10/02 08:13:33;;;;;;;25.10;11.52;;;;;;;;;;4977748;28;20473;-62
2023/10/02 08:16:12;;;;;;;25.60;11.55;;;;;;;;;;4962727;28;20546;-62
2023/10/02 08:18:56;;;;;;;29.75;12.05;;;;;;;;;;4975986;28;20050;-62
2023/10/02 08:21:34;;;;;;;25.92;10.68;;;;;;;;;;4964003;28;20187;-63
2023/10/02 08:24:03;;;;;;;30.63;13.65;;;;;;;;;;4967832;28;20078;-63
2023/10/02 08:26:38;;;;;;;36.78;13.77;;;;;;;;;;4969237;28;20105;-65
2023/10/02 08:29:08;;;;;;;34.83;13.23;;;;;;;;;;4971737;28;20490;-63
2023/10/02 08:31:35;;;;;;;35.90;14.38;;;;;;;;;;4972713;28;20494;-65
2023/10/02 08:34:05;;;;;;;29.63;12.73;;;;;;;;;;4964156;28;20114;-65
2023/10/02 08:36:32;;;;;;;34.00;12.65;;;;;;;;;;4969227;28;20046;-64
2023/10/02 08:38:59;;;;;;;31.67;12.18;;;;;;;;;;4969651;28;20134;-64
2023/10/02 08:41:27;;;;;;;31.00;11.98;;;;;;;;;;4971668;28;20058;-64
2023/10/02 08:43:54;;;;;;;28.20;12.20;;;;;;;;;;4972530;28;20043;-66
2023/10/02 08:46:22;;;;;;;31.05;13.32;;;;;;;;;;4968325;28;20047;-64
2023/10/02 08:48:54;;;;;;;33.55;12.95;;;;;;;;;;4978015;28;20054;-64
2023/10/02 08:51:29;;;;;;;28.35;13.18;;;;;;;;;;4966297;28;20043;-64
2023/10/02 08:53:57;;;;;;;30.73;12.73;;;;;;;;;;4977389;28;20050;-64
2023/10/02 08:56:25;;;;;;;33.35;12.80;;;;;;;;;;4970050;28;20051;-63
2023/10/02 08:59:15;;;;;;;31.75;12.73;;;;;;;;;;4961306;28;20050;-62
2023/10/02 09:01:40;;;;;;;29.50;12.88;;;;;;;;;;4970685;28;20046;-64
2023/10/02 09:06:59;;;;;;;36.42;12.18;;;;;;;;;;4979846;28;20054;-64
2023/10/02 09:09:35;;;;;;;29.50;12.73;;;;;;;;;;4967976;28;20047;-65
2023/10/02 09:12:03;;;;;;;30.38;14.18;;;;;;;;;;4967840;28;20450;-64
2023/10/02 09:14:41;;;;;;;31.20;12.07;;;;;;;;;;4975535;28;20419;-64
2023/10/02 09:17:16;;;;;;;30.85;12.70;;;;;;;;;;4968764;28;20105;-64
2023/10/02 09:19:48;;;;;;;31.83;13.10;;;;;;;;;;4975593;28;20046;-64
2023/10/02 09:22:16;;;;;;;33.47;11.93;;;;;;;;;;4967470;28;20047;-64
2023/10/02 09:24:55;;;;;;;32.75;12.63;;;;;;;;;;4977993;28;20137;-63
2023/10/02 09:27:30;;;;;;;30.88;12.32;;;;;;;;;;4968009;28;20100;-63
2023/10/02 09:30:19;;;;;;;29.88;14.05;;;;;;;;;;4974258;28;20039;-64
2023/10/02 09:32:50;;;;;;;31.15;11.98;;;;;;;;;;4970298;28;20082;-63
2023/10/02 09:35:29;;;;;;;30.05;13.02;;;;;;;;;;4963766;28;20399;-64
2023/10/02 09:37:58;;;;;;;28.23;13.02;;;;;;;;;;4972173;28;20571;-61
2023/10/02 09:40:29;;;;;;;31.90;12.93;;;;;;;;;;4968230;28;20421;-62
2023/10/02 09:43:03;;;;;;;27.67;12.45;;;;;;;;;;4980954;28;20054;-62
2023/10/02 09:45:37;;;;;;;29.35;12.77;;;;;;;;;;4975148;28;20043;-63
2023/10/02 09:48:32;;;;;;;30.23;12.80;;;;;;;;;;4977656;28;20042;-65
2023/10/02 09:50:56;;;;;;;32.17;12.75;;;;;;;;;;4967979;28;20069;-62
2023/10/02 09:53:25;;;;;;;30.23;13.23;;;;;;;;;;4967261;28;20061;-65
2023/10/02 09:56:09;;;;;;;30.83;13.95;;;;;;;;;;4969811;28;20042;-63
2023/10/02 09:58:39;;;;;;;30.77;13.75;;;;;;;;;;4966874;28;20137;-65
2023/10/02 10:01:37;;;;;;;33.10;13.57;;;;;;;;;;4967534;28;20509;-65
2023/10/02 10:04:31;;;;;;;31.95;13.23;;;;;;;;;;4972843;28;20050;-64
2023/10/02 10:07:06;;;;;;;;;;;;;;;;;;4974416;28;20061;-64
2023/10/02 10:09:50;;;;;;;30.25;12.52;;;;;;;;;;4968981;28;20016;-66
2023/10/02 10:12:50;;;;;;;33.42;15.60;;;;;;;;;;4971063;28;20046;-64
2023/10/02 10:15:23;;;;;;;33.65;13.75;;;;;;;;;;4973547;28;20051;-62
2023/10/02 10:17:56;;;;;;;37.70;15.82;;;;;;;;;;4966901;28;20062;-65
2023/10/02 10:20:27;;;;;;;35.53;12.90;;;;;;;;;;4971060;28;20091;-64
2023/10/02 10:22:55;;;;;;;30.58;13.45;;;;;;;;;;4978186;28;20729;-63
2023/10/02 10:25:44;;;;;;;30.48;13.10;;;;;;;;;;4968551;28;20530;-64
2023/10/02 10:28:27;;;;;;;31.92;13.88;;;;;;;;;;4974155;28;20659;-63
2023/10/02 10:30:56;;;;;;;28.95;13.60;;;;;;;;;;4969362;28;20090;-62
2023/10/02 10:33:36;;;;;;;28.42;12.65;;;;;;;;;;4967938;28;20053;-63
2023/10/02 10:36:17;;;;;;;29.50;12.80;;;;;;;;;;4966659;28;20494;-64
2023/10/02 10:38:45;;;;;;;31.77;13.48;;;;;;;;;;4975798;28;20073;-61
2023/10/02 10:41:31;;;;;;;32.35;13.32;;;;;;;;;;4976837;28;20046;-60
2023/10/02 10:43:57;;;;;;;29.98;13.45;;;;;;;;;;4976796;28;20077;-61
2023/10/02 10:46:27;;;;;;;32.63;12.63;;;;;;;;;;4972674;28;20121;-61
2023/10/02 10:49:07;;;;;;;31.33;12.82;;;;;;;;;;4964932;28;20046;-63
2023/10/02 10:51:36;;;;;;;29.55;13.52;;;;;;;;;;4972730;28;20051;-63
2023/10/02 10:54:13;;;;;;;29.58;13.20;;;;;;;;;;4970322;28;20043;-64
2023/10/02 10:56:44;;;;;;;27.08;11.48;;;;;;;;;;4977501;28;20050;-63
2023/10/02 10:59:15;;;;;;;35.22;13.63;;;;;;;;;;4980436;28;20137;-64
2023/10/02 11:01:49;;;;;;;;;;;;;;;;;;4975080;28;20133;-63
2023/10/02 11:04:26;;;;;;;26.48;11.82;;;;;;;;;;4974319;28;20281;-64
2023/10/02 11:06:54;;;;;;;25.63;12.00;;;;;;;;;;4976365;28;20142;-64
2023/10/02 11:09:24;;;;;;;28.98;13.82;;;;;;;;;;4981640;28;20050;-64
2023/10/02 11:11:51;;;;;;;;;;;;;;;;;;4978561;28;20168;-64
2023/10/02 11:14:21;;;;;;;29.08;12.40;;;;;;;;;;4985578;28;19922;-64
2023/10/02 11:16:52;;;;;;;34.78;13.80;;;;;;;;;;4991301;28;20096;-63
2023/10/02 11:19:34;;;;;;;32.10;13.45;;;;;;;;;;4977006;28;20133;-60
2023/10/02 11:22:16;;;;;;;25.83;12.88;;;;;;;;;;4967111;28;20132;-62
2023/10/02 11:24:44;;;;;;;30.52;13.07;;;;;;;;;;4971770;28;20582;-60
2023/10/02 11:27:14;;;;;;;30.02;13.13;;;;;;;;;;4970759;28;20537;-61
2023/10/02 11:29:42;;;;;;;31.00;14.45;;;;;;;;;;4971761;28;20046;-62
2023/10/02 11:34:51;;;;;;;31.92;13.50;;;;;;;;;;4962633;28;20514;-62
2023/10/02 11:37:23;;;;;;;29.98;13.45;;;;;;;;;;4971563;28;20070;-61
2023/10/02 11:39:51;;;;;;;31.70;13.70;;;;;;;;;;4970065;28;20047;-62
2023/10/02 11:42:20;;;;;;;30.90;12.95;;;;;;;;;;4968789;28;20416;-61
2023/10/02 11:44:47;;;;;;;35.75;15.55;;;;;;;;;;4975448;28;20145;-62
2023/10/02 11:47:14;;;;;;;31.13;13.95;;;;;;;;;;4974528;28;20051;-62
2023/10/02 11:49:42;;;;;;;35.38;14.52;;;;;;;;;;4975950;28;20043;-62
2023/10/02 11:52:09;;;;;;;32.88;14.50;;;;;;;;;;4973234;28;20042;-62
2023/10/02 11:54:39;;;;;;;34.15;14.40;;;;;;;;;;4979610;28;20047;-61
2023/10/02 11:57:09;;;;;;;31.92;13.90;;;;;;;;;;4980559;28;20038;-60
2023/10/02 11:59:36;;;;;;;;;;;;;;;;;;4976012;28;20061;-61
2023/10/02 12:02:03;;;;;;;33.08;14.00;;;;;;;;;;4973029;28;19944;-62
2023/10/02 12:04:30;;;;;;;32.28;13.88;;;;;;;;;;4971390;28;20047;-63
2023/10/02 12:06:57;;;;;;;29.02;13.07;;;;;;;;;;4972324;28;20046;-61
2023/10/02 12:09:25;;;;;;;31.20;14.65;;;;;;;;;;4971481;28;20470;-62
2023/10/02 12:11:52;;;;;;;33.97;14.57;;;;;;;;;;4973965;28;20043;-62
2023/10/02 12:14:20;;;;;;;33.92;14.60;;;;;;;;;;4976027;28;20046;-61
2023/10/02 12:16:47;;;;;;;36.40;15.77;;;;;;;;;;4975253;28;20101;-61
2023/10/02 12:19:15;;;;;;;34.00;14.48;;;;;;;;;;4971982;28;20054;-62
2023/10/02 12:21:41;;;;;;;32.42;15.30;;;;;;;;;;4973924;28;20132;-62
2023/10/02 12:24:08;;;;;;;32.63;13.88;;;;;;;;;;4975439;28;20462;-61
2023/10/02 12:26:35;;;;;;;35.28;14.80;;;;;;;;;;4974899;28;20057;-62
2023/10/02 12:29:03;;;;;;;34.72;14.90;;;;;;;;;;4971497;28;20422;-60
2023/10/02 12:31:31;;;;;;;33.85;14.35;;;;;;;;;;4972829;28;20517;-61
2023/10/02 12:33:58;;;;;;;34.15;15.57;;;;;;;;;;4974369;28;20054;-62
2023/10/02 12:36:26;;;;;;;34.95;15.20;;;;;;;;;;4971520;28;20050;-61
2023/10/02 12:38:54;;;;;;;32.50;14.75;;;;;;;;;;4967227;28;20047;-62
2023/10/02 12:41:21;;;;;;;35.55;15.23;;;;;;;;;;4975807;28;20047;-62
2023/10/02 12:43:55;;;;;;;33.80;15.00;;;;;;;;;;4967937;28;20138;-61
2023/10/02 12:46:24;;;;;;;32.88;15.55;;;;;;;;;;4971835;28;20043;-61
2023/10/02 12:48:51;;;;;;;37.92;14.90;;;;;;;;;;4970586;28;20514;-63
2023/10/02 12:51:18;;;;;;;36.33;14.82;;;;;;;;;;4970429;28;20042;-62
2023/10/02 12:53:45;;;;;;;29.58;14.50;;;;;;;;;;4961999;28;20094;-62
2023/10/02 12:56:16;;;;;;;33.80;14.43;;;;;;;;;;4973143;28;20049;-62
2023/10/02 12:58:43;;;;;;;33.38;15.60;;;;;;;;;;4979744;28;20069;-63
2023/10/02 13:01:13;;;;;;;37.40;15.80;;;;;;;;;;4971214;28;20142;-63
2023/10/02 13:03:42;;;;;;;31.13;14.80;;;;;;;;;;4965601;28;20689;-61
2023/10/02 13:06:12;;;;;;;34.40;14.73;;;;;;;;;;4972724;28;20059;-61
2023/10/02 13:08:40;;;;;;;33.88;14.88;;;;;;;;;;4965381;28;20054;-63
2023/10/02 13:11:10;;;;;;;36.90;15.85;;;;;;;;;;4967482;28;20538;-63
2023/10/02 13:13:36;;;;;;;32.97;14.15;;;;;;;;;;4969203;28;20050;-62
2023/10/02 13:16:04;;;;;;;33.30;16.05;;;;;;;;;;4975969;28;20054;-62
2023/10/02 13:18:31;;;;;;;34.60;14.93;;;;;;;;;;4972501;28;20055;-63
2023/10/02 13:20:59;;;;;;;32.75;15.40;;;;;;;;;;4977795;28;20141;-63
2023/10/02 13:23:26;;;;;;;34.60;16.08;;;;;;;;;;4971465;28;20158;-63
2023/10/02 13:25:54;;;;;;;34.55;15.60;;;;;;;;;;4968779;28;20074;-62
2023/10/02 13:28:21;;;;;;;32.80;15.43;;;;;;;;;;4966023;28;20102;-64
2023/10/02 13:30:47;;;;;;;31.10;15.20;;;;;;;;;;4961546;28;20069;-63
2023/10/02 13:33:14;;;;;;;36.22;15.55;;;;;;;;;;4969515;28;20055;-63
2023/10/02 13:35:44;;;;;;;38.33;16.70;;;;;;;;;;4968982;28;20580;-63
2023/10/02 13:38:12;;;;;;;32.97;16.63;;;;;;;;;;4965516;28;20050;-63
2023/10/02 13:40:38;;;;;;;31.05;15.00;;;;;;;;;;4969823;28;20057;-63
2023/10/02 13:43:07;;;;;;;30.63;15.52;;;;;;;;;;4971200;28;20057;-63
2023/10/02 13:45:35;;;;;;;32.10;15.40;;;;;;;;;;4965813;28;20058;-62
2023/10/02 13:48:03;;;;;;;33.33;16.05;;;;;;;;;;4968508;28;20093;-62
2023/10/02 13:50:35;;;;;;;34.10;17.40;;;;;;;;;;4961604;28;20050;-62
2023/10/02 13:53:03;;;;;;;35.60;17.67;;;;;;;;;;4965874;28;20046;-62
2023/10/02 13:55:35;;;;;;;34.30;16.17;;;;;;;;;;4972043;28;20134;-62
2023/10/02 13:58:03;;;;;;;36.33;17.70;;;;;;;;;;4975883;28;20106;-63
2023/10/02 14:00:35;;;;;;;33.00;18.17;;;;;;;;;;4969110;28;20261;-62
2023/10/02 14:03:02;;;;;;;33.60;16.08;;;;;;;;;;4970375;28;20089;-63
2023/10/02 14:05:29;;;;;;;33.53;16.75;;;;;;;;;;4977774;28;20047;-62
2023/10/02 14:07:56;;;;;;;35.80;15.25;;;;;;;;;;4968933;28;20103;-63
2023/10/02 14:10:22;;;;;;;32.28;15.52;;;;;;;;;;4963083;28;20050;-63
2023/10/02 14:12:50;;;;;;;33.22;15.23;;;;;;;;;;4975199;28;20061;-63
2023/10/02 14:15:17;;;;;;;34.42;15.85;;;;;;;;;;4972692;28;20057;-63
2023/10/02 14:17:44;;;;;;;35.10;15.88;;;;;;;;;;4977912;28;20152;-63
2023/10/02 14:20:15;;;;;;;29.38;14.45;;;;;;;;;;4969660;28;20408;-63
2023/10/02 14:22:43;;;;;;;31.58;15.25;;;;;;;;;;4978577;28;20145;-63
2023/10/02 14:25:12;;;;;;;30.77;14.65;;;;;;;;;;4967972;28;20077;-62
2023/10/02 14:27:39;;;;;;;34.25;15.43;;;;;;;;;;4965272;28;20055;-62
2023/10/02 14:30:12;;;;;;;33.88;16.05;;;;;;;;;;4970747;28;20054;-63
2023/10/02 14:32:40;;;;;;;30.70;15.98;;;;;;;;;;4975898;28;20054;-63
2023/10/02 14:35:08;;;;;;;30.80;15.77;;;;;;;;;;4966400;28;20051;-62
2023/10/02 14:37:35;;;;;;;36.42;17.10;;;;;;;;;;4975160;28;20137;-62
2023/10/02 14:40:02;;;;;;;33.80;16.80;;;;;;;;;;4972343;28;20046;-63
2023/10/02 14:42:29;;;;;;;32.22;16.00;;;;;;;;;;4979343;28;20055;-63
2023/10/02 14:44:56;;;;;;;35.05;17.02;;;;;;;;;;4974069;28;20042;-63
2023/10/02 14:47:24;;;;;;;31.42;15.90;;;;;;;;;;4967275;28;20047;-62
2023/10/02 14:49:50;;;;;;;38.30;18.75;;;;;;;;;;4972351;28;20054;-62
2023/10/02 14:52:17;;;;;;;34.50;16.95;;;;;;;;;;4959393;28;20055;-61
2023/10/02 14:54:44;;;;;;;34.17;17.35;;;;;;;;;;4965479;28;20043;-61
2023/10/02 14:57:10;;;;;;;34.53;17.35;;;;;;;;;;4967938;28;20061;-62
2023/10/02 14:59:37;;;;;;;29.90;15.48;;;;;;;;;;4959245;28;20047;-62
2023/10/02 15:02:04;;;;;;;34.65;16.73;;;;;;;;;;4965309;28;20504;-60